Time;durP1;ratioP1;P1;durP2;ratioP2;P2;SDS_P1;SDS_P2;PMS_P1;PMS_P2;Temp;Humidity;BMP_temperature;BMP_pressure;BME280_temperature;BME280_humidity;BME280_pressure;Samples;Min_cycle;Max_cycle;Signal;HPM_P1;HPM_P2
2022/06/03 04:00:59;;;;;;;1.83;1.40;;;14.00;96.30;;;;;;5716925;23;20584;-79
2022/06/03 04:03:59;;;;;;;1.90;1.60;;;14.60;96.30;;;;;;4952493;29;20874;-78
2022/06/03 04:07:02;;;;;;;1.53;1.40;;;15.40;95.50;;;;;;4934746;29;20252;-78
2022/06/03 04:09:55;;;;;;;2.17;1.33;;;16.00;93.10;;;;;;4934131;29;20463;-79
2022/06/03 04:12:29;;;;;;;3.47;1.60;;;16.40;91.10;;;;;;4934591;29;20757;-79
2022/06/03 04:15:49;;;;;;;1.50;1.40;;;16.60;89.60;;;;;;4935239;29;20767;-79
2022/06/03 04:18:42;;;;;;;1.37;1.27;;;16.30;91.10;;;;;;4944111;29;20427;-78
2022/06/03 04:24:05;;;;;;;2.20;1.40;;;16.50;90.70;;;;;;4989078;23;20524;-80
2022/06/03 04:26:55;;;;;;;2.30;2.00;;;16.60;90.10;;;;;;4973289;28;20425;-80
2022/06/03 04:29:58;;;;;;;3.80;2.00;;;17.40;88.80;;;;;;4978073;28;20503;-80
2022/06/03 04:32:38;;;;;;;6.30;2.80;;;17.80;88.60;;;;;;4976416;28;20520;-79
2022/06/03 04:35:22;;;;;;;5.10;3.70;;;18.30;86.70;;;;;;4973751;28;20413;-78
2022/06/03 04:38:24;;;;;;;3.73;3.10;;;18.50;85.80;;;;;;4976892;28;20937;-79
2022/06/03 04:41:09;;;;;;;2.50;1.87;;;18.60;86.30;;;;;;4957559;29;20430;-79
2022/06/03 04:44:13;;;;;;;1.70;1.60;;;19.30;84.20;;;;;;4957669;29;20394;-76
2022/06/03 04:47:10;;;;;;;2.17;1.27;;;19.50;83.10;;;;;;4956101;29;20429;-77
2022/06/03 04:49:55;;;;;;;1.50;1.40;;;18.30;86.30;;;;;;4959597;28;20454;-79
2022/06/03 04:52:51;;;;;;;2.10;1.40;;;19.10;85.40;;;;;;4956555;28;20453;-78
2022/06/03 04:55:50;;;;;;;1.50;1.40;;;19.80;83.20;;;;;;4965895;28;20535;-79
2022/06/03 04:59:02;;;;;;;1.57;1.40;;;20.40;81.10;;;;;;4957274;28;20421;-79
2022/06/03 05:01:47;;;;;;;1.43;1.33;;;21.20;79.30;;;;;;4957605;28;20870;-79
2022/06/03 05:05:06;;;;;;;1.50;1.10;;;21.90;76.80;;;;;;4956146;29;20517;-79
2022/06/03 05:07:50;;;;;;;1.77;1.10;;;21.30;77.80;;;;;;4960517;28;20433;-79
2022/06/03 05:10:40;;;;;;;3.53;1.50;;;21.60;77.60;;;;;;4969919;28;20426;-80
2022/06/03 05:13:23;;;;;;;1.80;1.20;;;21.60;78.30;;;;;;4956127;29;20424;-79
2022/06/03 05:16:19;;;;;;;1.20;1.10;;;21.40;78.30;;;;;;4957464;28;20417;-80
2022/06/03 05:18:50;;;;;;;1.50;1.40;;;21.90;78.10;;;;;;4956984;29;20410;-79
2022/06/03 05:21:46;;;;;;;4.23;1.50;;;22.80;76.00;;;;;;4957372;29;20957;-79
2022/06/03 05:24:49;;;;;;;3.13;1.37;;;22.80;75.40;;;;;;4972364;28;20448;-81
2022/06/03 05:27:29;;;;;;;3.00;1.43;;;23.50;73.10;;;;;;4976468;28;20441;-80
2022/06/03 05:30:14;;;;;;;1.43;1.20;;;23.40;73.00;;;;;;4975501;28;20500;-78
2022/06/03 05:33:18;;;;;;;1.50;1.30;;;22.60;75.10;;;;;;4961286;29;20956;-79
2022/06/03 05:36:25;;;;;;;1.73;1.40;;;22.30;76.00;;;;;;4956876;28;20432;-79
2022/06/03 05:39:22;;;;;;;1.90;1.30;;;22.80;75.70;;;;;;4964080;28;20444;-79
2022/06/03 05:42:27;;;;;;;2.20;1.43;;;24.00;71.70;;;;;;4976463;28;20452;-79
2022/06/03 05:45:10;;;;;;;1.73;1.30;;;24.20;72.60;;;;;;4971567;28;20430;-79
2022/06/03 05:47:47;;;;;;;2.97;1.47;;;23.80;72.30;;;;;;4963173;28;20847;-79
2022/06/03 05:50:19;;;;;;;2.03;1.40;;;23.10;75.10;;;;;;4961310;28;20433;-77
2022/06/03 05:53:13;;;;;;;1.50;1.40;;;23.70;72.70;;;;;;4957143;28;20473;-77
2022/06/03 05:56:19;;;;;;;3.63;1.60;;;23.80;73.10;;;;;;4945271;28;20557;-80
2022/06/03 05:58:58;;;;;;;2.23;1.63;;;24.20;72.90;;;;;;4943408;28;20441;-77
2022/06/03 06:01:51;;;;;;;2.73;1.67;;;24.80;71.60;;;;;;4956013;28;20454;-77
2022/06/03 06:04:49;;;;;;;1.73;1.60;;;25.10;70.50;;;;;;4959073;28;20866;-77
2022/06/03 06:07:51;;;;;;;1.50;1.23;;;25.10;70.90;;;;;;4958686;28;20806;-77
2022/06/03 06:10:33;;;;;;;3.77;1.53;;;25.60;70.20;;;;;;4959997;28;20433;-76
2022/06/03 06:13:12;;;;;;;1.60;1.30;;;25.50;70.40;;;;;;4960368;28;20429;-80
2022/06/03 06:16:07;;;;;;;1.60;1.30;;;25.40;69.80;;;;;;4961583;28;20904;-76
2022/06/03 06:18:54;;;;;;;3.03;1.30;;;25.60;70.90;;;;;;4962170;28;20409;-81
2022/06/03 06:21:39;;;;;;;1.57;1.13;;;26.50;68.30;;;;;;4963202;28;20445;-77
2022/06/03 06:24:21;;;;;;;3.00;1.67;;;25.80;68.80;;;;;;4958333;28;20501;-76
2022/06/03 06:27:12;;;;;;;2.27;1.40;;;25.60;70.40;;;;;;4963619;28;20459;-78
2022/06/03 06:30:22;;;;;;;2.10;1.27;;;25.50;70.50;;;;;;4963574;28;20448;-77
2022/06/03 06:33:14;;;;;;;2.77;1.53;;;25.30;70.40;;;;;;4967053;28;21326;-78
2022/06/03 06:36:25;;;;;;;4.43;1.33;;;26.50;68.60;;;;;;4959765;28;20817;-78
2022/06/03 06:39:02;;;;;;;3.17;1.30;;;25.20;70.30;;;;;;4956077;28;20430;-77
2022/06/03 06:41:46;;;;;;;9.23;2.10;;;25.10;71.40;;;;;;4960063;28;20438;-79
2022/06/03 06:44:31;;;;;;;2.70;1.40;;;24.50;72.60;;;;;;4955417;28;20417;-77
2022/06/03 06:46:57;;;;;;;1.57;1.03;;;25.40;72.20;;;;;;4987524;28;20453;-80
2022/06/03 06:50:04;;;;;;;2.27;1.20;;;25.40;71.60;;;;;;4985559;28;21380;-80
2022/06/03 06:52:53;;;;;;;1.97;1.07;;;25.30;72.10;;;;;;4975489;28;20198;-77
2022/06/03 06:55:37;;;;;;;2.30;1.10;;;26.20;69.40;;;;;;4959128;28;20428;-76
2022/06/03 06:58:07;;;;;;;1.20;1.00;;;26.40;69.40;;;;;;4963091;28;20464;-78
2022/06/03 07:00:40;;;;;;;1.60;1.50;;;26.50;69.40;;;;;;4953054;28;20445;-80
2022/06/03 07:03:13;;;;;;;4.07;1.17;;;25.70;70.70;;;;;;4950188;28;20437;-77
2022/06/03 07:05:52;;;;;;;2.50;0.97;;;26.20;70.60;;;;;;4961490;28;20459;-76
2022/06/03 07:08:30;;;;;;;1.30;1.00;;;27.10;68.90;;;;;;4957318;28;20477;-76
2022/06/03 07:11:07;;;;;;;3.47;1.30;;;27.80;67.40;;;;;;4957409;28;20545;-76
2022/06/03 07:13:46;;;;;;;1.73;1.47;;;27.30;67.30;;;;;;4960422;28;20427;-76
2022/06/03 07:19:47;;;;;;;1.93;1.40;;;26.80;67.00;;;;;;4955906;28;20434;-76
2022/06/03 07:22:24;;;;;;;1.70;1.10;;;26.90;69.10;;;;;;4960399;28;20509;-77
2022/06/03 07:25:16;;;;;;;2.90;1.33;;;26.60;68.30;;;;;;4958264;28;20409;-76
2022/06/03 07:28:06;;;;;;;3.43;1.20;;;27.30;66.90;;;;;;4955921;28;20425;-76
2022/06/03 07:30:56;;;;;;;3.57;1.40;;;26.30;68.90;;;;;;4955966;28;20418;-79
2022/06/03 07:33:39;;;;;;;2.33;1.20;;;26.60;68.60;;;;;;4950361;28;20422;-77
2022/06/03 07:36:45;;;;;;;3.10;1.40;;;26.20;68.40;;;;;;4953439;28;20409;-80
2022/06/03 07:39:24;;;;;;;1.40;1.30;;;26.10;69.00;;;;;;4960488;28;20452;-76
2022/06/03 07:42:04;;;;;;;1.70;1.40;;;26.60;68.30;;;;;;4957795;28;20571;-76
2022/06/03 07:44:44;;;;;;;1.73;1.40;;;27.00;67.60;;;;;;4957126;28;20776;-80
2022/06/03 07:47:11;;;;;;;1.83;1.47;;;26.80;68.20;;;;;;4957052;28;20817;-76
2022/06/03 07:49:38;;;;;;;1.50;1.10;;;26.60;69.50;;;;;;4967579;28;20480;-76
2022/06/03 07:52:14;;;;;;;1.43;1.33;;;26.80;68.00;;;;;;4954070;28;20465;-76
2022/06/03 07:54:50;;;;;;;2.60;1.20;;;26.20;69.40;;;;;;4953423;28;20917;-78
2022/06/03 07:57:22;;;;;;;4.10;1.73;;;26.10;69.20;;;;;;4956966;28;20987;-76
2022/06/03 07:59:48;;;;;;;4.33;1.23;;;26.40;69.20;;;;;;4956143;28;20487;-76
2022/06/03 08:02:21;;;;;;;2.73;1.50;;;26.10;68.60;;;;;;4954663;28;20445;-78
2022/06/03 08:04:58;;;;;;;3.43;1.30;;;25.70;69.70;;;;;;4953792;28;20964;-76
2022/06/03 08:13:11;;;;;;;1.77;1.30;;;25.30;70.60;;;;;;4960837;28;20433;-76
2022/06/03 08:15:58;;;;;;;3.33;1.40;;;25.80;71.10;;;;;;4960895;28;20408;-76
2022/06/03 08:18:29;;;;;;;3.93;1.40;;;26.20;70.60;;;;;;4954442;28;20426;-76
2022/06/03 08:21:06;;;;;;;2.67;1.40;;;25.60;72.20;;;;;;4955180;28;20430;-76
2022/06/03 08:23:34;;;;;;;1.63;1.50;;;25.10;71.10;;;;;;4962977;28;20440;-76
2022/06/03 08:26:08;;;;;;;4.60;1.50;;;25.10;71.90;;;;;;4956694;28;20793;-77
2022/06/03 08:28:37;;;;;;;2.53;1.40;;;24.90;73.50;;;;;;4956002;28;20461;-78
2022/06/03 08:31:05;;;;;;;1.93;1.40;;;25.70;73.40;;;;;;4960526;28;20492;-79
2022/06/03 08:33:34;;;;;;;5.10;1.63;;;26.60;71.60;;;;;;4960778;28;20836;-77
2022/06/03 08:36:00;;;;;;;2.17;1.80;;;26.50;71.90;;;;;;4960298;28;20772;-77
2022/06/03 08:38:32;;;;;;;4.50;1.60;;;26.10;71.70;;;;;;4959328;28;20460;-80
2022/06/03 08:41:15;;;;;;;2.03;1.40;;;25.70;73.30;;;;;;4949040;28;20445;-79
2022/06/03 08:44:12;;;;;;;5.53;1.30;;;25.30;72.30;;;;;;4961381;28;20477;-76
2022/06/03 08:46:56;;;;;;;2.13;1.53;;;24.70;74.90;;;;;;4960759;28;20417;-76
2022/06/03 08:49:27;;;;;;;1.50;1.40;;;24.40;74.80;;;;;;4953206;28;20457;-76
2022/06/03 08:52:01;;;;;;;2.70;1.40;;;24.70;74.50;;;;;;4957691;28;20502;-76
2022/06/03 08:54:41;;;;;;;4.73;1.50;;;24.70;75.30;;;;;;4950634;28;20417;-78
2022/06/03 08:57:27;;;;;;;2.13;1.40;;;24.90;73.90;;;;;;4953505;28;20488;-77
2022/06/03 09:00:07;;;;;;;2.80;1.43;;;24.70;74.30;;;;;;4956849;28;21092;-76
2022/06/03 09:02:44;;;;;;;2.40;1.53;;;24.10;75.70;;;;;;4957516;28;20478;-76
2022/06/03 09:05:22;;;;;;;3.53;1.43;;;24.50;75.90;;;;;;4958943;28;20925;-76
2022/06/03 09:07:55;;;;;;;2.03;1.50;;;24.70;74.20;;;;;;4951165;28;20446;-76
2022/06/03 09:10:45;;;;;;;1.70;1.60;;;24.60;73.60;;;;;;4956947;28;20488;-79
2022/06/03 09:13:25;;;;;;;11.07;1.40;;;24.50;73.60;;;;;;4960521;28;20402;-75
2022/06/03 09:15:52;;;;;;;2.43;1.40;;;24.50;74.90;;;;;;4962786;28;20509;-78
2022/06/03 09:18:25;;;;;;;3.03;1.60;;;24.60;74.40;;;;;;4961141;28;21458;-76
2022/06/03 09:21:03;;;;;;;3.40;1.60;;;24.40;74.30;;;;;;4959394;28;20461;-78
2022/06/03 09:23:35;;;;;;;4.73;1.60;;;24.70;74.70;;;;;;4967098;28;20515;-77
2022/06/03 09:26:01;;;;;;;8.93;2.13;;;24.80;75.40;;;;;;4961370;28;20424;-78
2022/06/03 09:28:34;;;;;;;1.50;1.40;;;25.40;73.60;;;;;;4965944;28;20462;-76
2022/06/03 09:31:05;;;;;;;2.93;1.50;;;25.60;73.80;;;;;;4964090;28;20472;-77
2022/06/03 09:33:33;;;;;;;1.30;1.20;;;25.70;71.70;;;;;;4961427;28;20425;-79
2022/06/03 09:36:02;;;;;;;6.33;2.07;;;25.80;74.50;;;;;;4955983;28;20431;-78
2022/06/03 09:38:47;;;;;;;2.43;1.80;;;25.90;73.00;;;;;;4958202;28;20440;-78
2022/06/03 09:41:14;;;;;;;1.90;1.40;;;26.10;70.90;;;;;;4960399;28;20430;-76
2022/06/03 09:43:46;;;;;;;3.47;1.40;;;26.50;70.90;;;;;;4959214;28;20429;-76
2022/06/03 09:46:12;;;;;;;2.37;1.40;;;26.40;73.40;;;;;;4960264;28;20417;-76
2022/06/03 09:48:40;;;;;;;2.57;1.53;;;26.10;71.60;;;;;;4961511;28;20525;-79
2022/06/03 09:51:57;;;;;;;4.40;1.60;;;25.80;73.60;;;;;;4963424;28;20451;-76
2022/06/03 09:54:29;;;;;;;2.90;1.60;;;25.70;75.30;;;;;;4863392;29;20467;-76
2022/06/03 09:57:18;;;;;;;3.00;1.53;;;25.60;72.40;;;;;;4954391;28;20437;-76
2022/06/03 09:59:53;;;;;;;4.77;1.60;;;25.60;75.30;;;;;;4960258;28;20430;-76
2022/06/03 10:02:18;;;;;;;1.60;1.50;;;25.90;73.70;;;;;;4959735;28;20457;-77
2022/06/03 10:04:44;;;;;;;2.03;1.80;;;26.00;72.00;;;;;;4959503;28;20449;-77
2022/06/03 10:07:10;;;;;;;2.13;1.80;;;25.70;72.50;;;;;;4955239;28;20450;-76
2022/06/03 10:12:52;;;;;;;5.30;1.57;;;25.90;72.50;;;;;;4957575;28;20329;-76
2022/06/03 10:15:43;;;;;;;1.97;1.40;;;26.30;73.10;;;;;;4958307;28;21017;-75
2022/06/03 10:18:19;;;;;;;5.70;1.87;;;26.10;72.90;;;;;;4959010;28;20433;-76
2022/06/03 10:20:47;;;;;;;2.80;1.77;;;25.70;74.00;;;;;;4961078;28;20988;-76
2022/06/03 10:23:13;;;;;;;2.47;2.00;;;25.50;74.30;;;;;;4962133;28;20465;-75
2022/06/03 10:25:42;;;;;;;3.07;1.53;;;25.00;73.60;;;;;;4961092;28;20414;-75
2022/06/03 10:28:10;;;;;;;5.27;1.63;;;25.90;72.70;;;;;;4960298;28;20859;-76
2022/06/03 10:30:41;;;;;;;2.00;1.40;;;25.90;72.60;;;;;;4959450;28;20432;-77
2022/06/03 10:33:15;;;;;;;2.17;1.60;;;25.70;70.30;;;;;;4967655;28;20468;-77
2022/06/03 10:35:41;;;;;;;8.77;1.77;;;26.10;73.50;;;;;;4958482;28;20414;-76
2022/06/03 10:38:07;;;;;;;2.13;1.70;;;25.90;73.60;;;;;;4956785;28;20508;-76
2022/06/03 10:40:34;;;;;;;2.93;1.73;;;26.10;70.60;;;;;;4955368;28;20546;-77
2022/06/03 10:43:01;;;;;;;4.83;1.70;;;26.00;70.90;;;;;;4969706;28;20178;-76
2022/06/03 10:45:29;;;;;;;2.30;1.80;;;26.20;71.40;;;;;;4955471;29;20425;-77
2022/06/03 10:47:55;;;;;;;1.43;1.20;;;26.30;69.70;;;;;;4960693;28;20436;-76
2022/06/03 10:50:33;;;;;;;4.90;1.40;;;26.50;70.70;;;;;;4961394;28;20500;-78
2022/06/03 11:59:11;;;;;;;10.70;2.57;;;26.50;72.10;;;;;;5645208;23;20506;-79
2022/06/03 12:01:53;;;;;;;1.80;1.60;;;26.50;73.10;;;;;;4995544;28;20439;-78
2022/06/03 12:04:51;;;;;;;5.10;1.67;;;26.40;73.10;;;;;;4996060;28;20396;-78
2022/06/03 12:07:41;;;;;;;6.10;1.80;;;26.90;71.10;;;;;;4995127;28;20396;-78
2022/06/03 12:10:22;;;;;;;2.13;1.43;;;26.90;73.10;;;;;;4995670;28;20979;-79
2022/06/03 12:13:17;;;;;;;4.10;1.40;;;27.10;71.20;;;;;;4976857;28;20424;-78
2022/06/03 12:15:55;;;;;;;4.00;2.00;;;26.90;71.00;;;;;;4994859;28;20412;-79
2022/06/03 12:18:32;;;;;;;3.67;1.70;;;27.00;69.90;;;;;;4993087;28;20412;-78
2022/06/03 12:21:13;;;;;;;11.57;2.00;;;26.30;68.20;;;;;;4975693;28;20499;-78
2022/06/03 12:23:41;;;;;;;1.80;1.40;;;26.50;72.00;;;;;;4993182;28;20412;-78
2022/06/03 12:26:18;;;;;;;6.40;1.50;;;26.90;69.50;;;;;;4992959;28;20487;-78
2022/06/03 12:28:48;;;;;;;2.10;1.60;;;26.50;71.80;;;;;;4992421;28;20444;-78
2022/06/03 12:31:19;;;;;;;4.13;1.60;;;26.20;70.00;;;;;;4992626;28;20432;-78
2022/06/03 12:33:58;;;;;;;3.03;2.00;;;25.90;70.00;;;;;;4992666;28;20408;-78
2022/06/03 12:36:52;;;;;;;1.70;1.23;;;26.30;71.90;;;;;;4992743;28;20407;-78
2022/06/03 12:39:18;;;;;;;2.70;1.70;;;25.80;69.20;;;;;;4974943;28;20440;-78
2022/06/03 12:41:46;;;;;;;6.20;1.90;;;26.20;69.90;;;;;;4992800;28;20952;-78
2022/06/03 12:44:57;;;;;;;5.73;1.50;;;26.70;69.50;;;;;;4992989;28;20184;-79
2022/06/03 12:47:32;;;;;;;7.27;1.90;;;26.60;69.80;;;;;;4962377;28;20419;-78
2022/06/03 12:50:26;;;;;;;4.43;1.60;;;26.10;71.70;;;;;;4994635;28;20876;-78
2022/06/03 12:52:59;;;;;;;4.03;1.70;;;26.00;72.60;;;;;;4996547;28;20418;-78
2022/06/03 12:55:28;;;;;;;2.57;1.50;;;26.50;72.90;;;;;;4996552;28;20885;-78
2022/06/03 12:58:27;;;;;;;3.83;1.50;;;26.50;71.00;;;;;;4996283;28;20412;-79
2022/06/03 13:00:58;;;;;;;2.80;1.60;;;26.60;70.00;;;;;;4978847;28;20444;-78
2022/06/03 13:03:24;;;;;;;2.50;1.60;;;26.60;69.80;;;;;;4996469;28;20404;-79
2022/06/03 13:05:51;;;;;;;5.63;1.57;;;27.00;68.50;;;;;;4978924;28;20519;-78
2022/06/03 13:08:26;;;;;;;3.00;1.80;;;26.80;70.20;;;;;;4996372;28;20732;-78
2022/06/03 13:11:21;;;;;;;5.33;1.63;;;27.00;70.40;;;;;;4996823;28;20958;-78
2022/06/03 13:13:58;;;;;;;3.27;1.50;;;27.10;72.40;;;;;;4979016;28;20467;-78
2022/06/03 13:16:31;;;;;;;1.93;1.73;;;26.70;69.80;;;;;;4996692;28;20546;-79
2022/06/03 13:19:18;;;;;;;6.00;2.07;;;26.30;70.90;;;;;;4996910;28;20423;-78
2022/06/03 13:22:02;;;;;;;1.70;1.60;;;26.20;72.10;;;;;;4980152;28;20466;-79
2022/06/03 13:24:39;;;;;;;1.73;1.63;;;26.00;72.40;;;;;;4996147;28;20981;-78
2022/06/03 13:27:17;;;;;;;7.83;2.13;;;26.00;71.60;;;;;;4995899;28;20427;-78
2022/06/03 13:29:52;;;;;;;4.23;2.03;;;26.00;72.40;;;;;;4995324;28;20456;-78
2022/06/03 13:32:35;;;;;;;6.33;1.77;;;26.10;71.80;;;;;;4983665;28;20470;-78
2022/06/03 13:35:15;;;;;;;3.40;1.50;;;26.10;71.90;;;;;;4983388;28;20480;-78
2022/06/03 13:37:49;;;;;;;5.03;1.80;;;26.70;71.20;;;;;;4981382;28;20444;-78
2022/06/03 13:40:24;;;;;;;5.73;1.67;;;26.90;68.60;;;;;;4977784;28;20426;-79
2022/06/03 13:42:59;;;;;;;2.23;1.70;;;26.30;71.40;;;;;;4995369;28;20482;-78
2022/06/03 13:46:04;;;;;;;4.30;1.30;;;25.80;71.90;;;;;;4995302;28;20415;-79
2022/06/03 13:48:34;;;;;;;11.47;1.60;;;26.10;70.60;;;;;;4990619;28;20453;-80
2022/06/03 13:51:22;;;;;;;8.90;1.70;;;26.10;72.30;;;;;;4987968;28;20523;-78
2022/06/03 13:53:52;;;;;;;1.80;1.60;;;26.10;72.10;;;;;;4996357;28;20504;-78
2022/06/03 13:56:23;;;;;;;3.37;1.70;;;26.10;73.00;;;;;;4978390;28;20417;-79
2022/06/03 13:58:49;;;;;;;2.40;1.50;;;26.30;71.30;;;;;;4987238;28;20436;-78
2022/06/03 14:01:32;;;;;;;8.50;2.00;;;26.50;72.20;;;;;;4989050;28;20781;-77
2022/06/03 14:04:23;;;;;;;1.77;1.67;;;26.80;70.80;;;;;;4965667;28;20178;-80
2022/06/03 14:07:00;;;;;;;3.33;2.07;;;27.00;70.20;;;;;;4969895;28;20541;-79
2022/06/03 14:09:44;;;;;;;5.77;1.97;;;27.30;68.60;;;;;;4981981;28;20811;-79
2022/06/03 14:12:25;;;;;;;3.47;1.70;;;27.10;70.10;;;;;;4980430;28;20440;-80
2022/06/03 14:15:16;;;;;;;14.03;1.83;;;27.00;71.60;;;;;;5000322;28;20908;-79
2022/06/03 14:17:41;;;;;;;2.50;1.70;;;27.10;70.10;;;;;;4993050;28;20404;-79
2022/06/03 14:20:11;;;;;;;3.53;1.70;;;26.80;71.10;;;;;;5000981;28;20432;-79
2022/06/03 14:22:47;;;;;;;5.70;1.77;;;26.70;70.40;;;;;;5000168;28;20255;-80
2022/06/03 14:25:44;;;;;;;2.60;1.77;;;26.40;70.80;;;;;;5000628;28;20647;-79
2022/06/03 14:28:26;;;;;;;6.33;1.80;;;25.90;71.10;;;;;;4982663;28;20427;-78
2022/06/03 14:31:09;;;;;;;8.63;2.27;;;26.60;71.60;;;;;;4982152;28;20531;-78
2022/06/03 14:33:39;;;;;;;4.50;1.77;;;26.20;72.10;;;;;;4963217;28;20421;-79
2022/06/03 14:36:07;;;;;;;2.20;1.50;;;26.40;70.60;;;;;;4980585;28;20405;-80
2022/06/03 14:38:36;;;;;;;2.30;1.67;;;26.10;70.70;;;;;;4981022;28;20501;-78
2022/06/03 14:41:04;;;;;;;2.93;1.53;;;26.30;69.40;;;;;;4980919;28;20472;-79
2022/06/03 14:43:31;;;;;;;2.17;1.50;;;26.20;71.30;;;;;;4980739;28;20500;-79
2022/06/03 14:46:06;;;;;;;2.30;1.57;;;26.50;67.50;;;;;;4980879;28;20467;-79
2022/06/03 14:48:54;;;;;;;3.83;1.87;;;26.50;67.80;;;;;;4963100;28;20455;-78
2022/06/03 14:51:46;;;;;;;6.30;1.60;;;26.70;68.10;;;;;;4979077;28;20471;-79
2022/06/03 14:54:35;;;;;;;4.13;1.33;;;26.50;69.40;;;;;;4962961;28;20417;-79
2022/06/03 14:57:04;;;;;;;5.67;1.90;;;26.70;67.60;;;;;;4980113;28;20437;-79
2022/06/03 14:59:49;;;;;;;3.93;1.50;;;26.80;69.60;;;;;;4979401;28;20508;-80
2022/06/03 15:02:38;;;;;;;3.20;1.40;;;26.80;69.30;;;;;;4980930;28;20509;-80
2022/06/03 15:05:47;;;;;;;2.30;1.80;;;26.90;68.90;;;;;;4963200;28;20429;-79
2022/06/03 15:08:19;;;;;;;2.23;1.80;;;26.90;68.30;;;;;;4966950;28;20424;-80
2022/06/03 15:10:52;;;;;;;2.67;2.00;;;26.90;69.50;;;;;;4961907;28;20851;-80
2022/06/03 15:13:24;;;;;;;3.37;1.57;;;27.20;68.20;;;;;;4983036;28;20413;-79
2022/06/03 15:15:50;;;;;;;5.40;2.00;;;27.50;67.60;;;;;;4981821;28;20416;-79
2022/06/03 15:18:20;;;;;;;12.23;2.07;;;26.90;69.80;;;;;;4981880;28;20421;-79
2022/06/03 15:21:20;;;;;;;10.07;1.90;;;26.70;68.80;;;;;;4977819;28;20197;-81
2022/06/03 15:23:51;;;;;;;1.67;1.57;;;26.40;69.40;;;;;;4962854;28;20425;-80
2022/06/03 15:26:19;;;;;;;3.17;1.90;;;26.00;69.90;;;;;;4977623;28;20398;-79
2022/06/03 15:28:52;;;;;;;3.00;1.50;;;25.70;70.30;;;;;;4978574;28;20459;-79
2022/06/03 15:31:22;;;;;;;3.30;1.80;;;25.50;71.90;;;;;;4979845;28;20464;-80
2022/06/03 15:33:57;;;;;;;4.67;2.00;;;25.40;71.80;;;;;;4973936;28;20431;-78
2022/06/03 15:36:29;;;;;;;2.50;2.00;;;25.50;72.30;;;;;;4978188;28;20421;-80
2022/06/03 15:39:24;;;;;;;5.03;2.03;;;25.40;73.10;;;;;;4978034;28;20420;-80
2022/06/03 15:41:52;;;;;;;3.40;1.60;;;25.20;74.60;;;;;;4962973;28;20473;-78
2022/06/03 15:44:42;;;;;;;2.50;1.73;;;25.30;73.70;;;;;;4981171;28;20917;-80
2022/06/03 15:47:19;;;;;;;8.63;1.80;;;25.30;74.00;;;;;;4980689;28;20398;-79
2022/06/03 15:50:08;;;;;;;8.10;1.83;;;25.40;73.20;;;;;;4980953;28;20452;-80
2022/06/03 15:52:41;;;;;;;4.03;2.17;;;25.30;73.20;;;;;;4972673;28;20454;-79
2022/06/03 15:55:07;;;;;;;4.93;2.10;;;25.20;73.30;;;;;;4961579;28;20428;-78
2022/06/03 15:57:51;;;;;;;3.63;1.97;;;25.20;74.20;;;;;;4978305;28;20416;-79
2022/06/03 16:00:21;;;;;;;2.17;1.80;;;25.10;74.60;;;;;;4978248;28;20428;-81
2022/06/03 16:03:27;;;;;;;5.20;1.87;;;25.10;75.10;;;;;;4958953;28;20553;-81
2022/06/03 16:06:01;;;;;;;3.53;2.30;;;25.10;75.30;;;;;;4980505;28;20402;-79
2022/06/03 16:08:54;;;;;;;5.40;1.90;;;25.00;75.20;;;;;;4962564;28;20544;-80
2022/06/03 16:11:35;;;;;;;4.23;2.47;;;25.00;75.80;;;;;;4981169;28;20505;-80
2022/06/03 16:14:21;;;;;;;7.93;1.90;;;24.80;75.90;;;;;;4995885;28;20397;-79
2022/06/03 16:16:53;;;;;;;1.97;1.70;;;24.70;76.10;;;;;;4994789;28;20394;-80
2022/06/03 16:19:55;;;;;;;5.53;2.00;;;24.70;76.30;;;;;;4995161;28;20418;-78
2022/06/03 16:22:35;;;;;;;6.60;2.17;;;24.50;77.20;;;;;;4995481;28;20416;-80
2022/06/03 16:25:21;;;;;;;4.53;2.17;;;24.50;78.60;;;;;;4983778;28;20412;-81
2022/06/03 16:28:08;;;;;;;2.90;1.83;;;24.50;78.00;;;;;;4981035;28;20460;-77
2022/06/03 16:30:45;;;;;;;4.00;1.90;;;24.60;77.80;;;;;;4998692;28;20419;-77
2022/06/03 16:33:32;;;;;;;2.73;2.23;;;24.60;77.40;;;;;;4997709;28;20420;-77
2022/06/03 16:36:11;;;;;;;3.50;1.90;;;24.50;78.90;;;;;;4996561;28;20838;-75
2022/06/03 16:39:03;;;;;;;4.73;2.63;;;24.50;78.10;;;;;;4996294;28;20759;-76
2022/06/03 16:41:39;;;;;;;4.07;2.13;;;24.60;78.20;;;;;;4996587;28;20431;-76
2022/06/03 16:44:09;;;;;;;3.30;1.83;;;24.60;77.80;;;;;;4996863;28;20388;-76
2022/06/03 16:46:47;;;;;;;5.18;1.80;;;24.70;77.80;;;;;;4996590;28;20479;-75
2022/06/03 16:49:25;;;;;;;3.03;2.00;;;24.50;78.10;;;;;;4996329;28;20739;-75
2022/06/03 16:52:08;;;;;;;4.83;4.07;;;24.30;79.30;;;;;;4996389;28;20963;-74
2022/06/03 16:54:53;;;;;;;4.87;1.90;;;24.20;79.70;;;;;;4996529;28;20506;-75
2022/06/03 16:57:19;;;;;;;8.43;2.00;;;24.20;79.70;;;;;;4996685;28;20421;-77
2022/06/03 17:00:23;;;;;;;2.90;2.13;;;24.10;79.50;;;;;;5003245;28;20983;-77
2022/06/03 17:02:54;;;;;;;3.60;2.50;;;24.10;80.30;;;;;;4996753;28;20661;-75
2022/06/03 17:05:21;;;;;;;2.27;1.90;;;24.10;80.30;;;;;;4997554;28;20772;-76
2022/06/03 17:07:53;;;;;;;5.47;2.20;;;24.10;80.00;;;;;;4980078;28;21002;-76
2022/06/03 17:10:22;;;;;;;2.83;2.57;;;24.00;80.30;;;;;;4997795;28;20487;-75
2022/06/03 17:12:49;;;;;;;14.43;2.97;;;24.00;81.20;;;;;;5000039;28;20889;-77
2022/06/03 17:15:16;;;;;;;6.00;2.40;;;23.90;82.20;;;;;;4979989;28;20836;-76
2022/06/03 17:17:42;;;;;;;4.40;2.50;;;23.80;81.90;;;;;;4998014;28;20784;-77
2022/06/03 17:20:37;;;;;;;2.30;2.10;;;23.70;81.60;;;;;;4996797;28;20416;-75
2022/06/03 17:23:31;;;;;;;2.63;1.80;;;23.60;82.40;;;;;;4997740;28;20417;-75
2022/06/03 17:26:03;;;;;;;5.93;2.13;;;23.60;82.50;;;;;;4996185;28;20896;-76
2022/06/03 17:28:33;;;;;;;5.83;2.20;;;23.60;82.90;;;;;;4996167;28;20451;-76
2022/06/03 17:31:10;;;;;;;7.20;2.73;;;23.60;82.70;;;;;;4997622;28;20432;-77
2022/06/03 17:34:13;;;;;;;2.43;2.20;;;23.40;83.40;;;;;;4997232;28;20819;-77
2022/06/03 17:37:12;;;;;;;2.60;2.40;;;23.40;84.30;;;;;;4979923;28;20488;-78
2022/06/03 17:40:01;;;;;;;4.77;2.80;;;23.40;84.20;;;;;;4996094;28;20491;-77
2022/06/03 17:42:42;;;;;;;4.07;2.33;;;23.30;85.00;;;;;;4996286;28;20531;-78
2022/06/03 17:45:27;;;;;;;5.10;1.97;;;23.10;86.30;;;;;;4997796;28;20436;-77
2022/06/03 17:48:03;;;;;;;4.70;1.97;;;23.00;87.00;;;;;;4993718;28;20910;-77
2022/06/03 17:50:43;;;;;;;3.70;2.20;;;22.90;87.00;;;;;;4992077;28;20990;-77
2022/06/03 17:56:42;;;;;;;2.50;2.30;;;22.70;90.10;;;;;;4997577;28;20414;-78
2022/06/03 17:59:36;;;;;;;2.83;2.30;;;22.60;91.20;;;;;;4997948;28;20506;-77
2022/06/03 18:02:27;;;;;;;3.47;1.83;;;22.40;90.50;;;;;;4993291;28;20452;-77
2022/06/03 18:05:14;;;;;;;3.60;2.03;;;22.30;89.70;;;;;;4963342;28;20476;-78
2022/06/03 18:08:06;;;;;;;5.93;2.13;;;22.20;90.00;;;;;;4979577;28;20441;-78
2022/06/03 18:16:21;;;;;;;6.37;2.20;;;21.90;92.50;;;;;;4707104;23;20484;-77
2022/06/03 18:18:50;;;;;;;6.17;2.00;;;21.80;93.30;;;;;;4996949;28;20436;-74
2022/06/03 18:21:44;;;;;;;18.23;2.47;;;21.80;92.90;;;;;;4977002;28;20541;-74
2022/06/03 18:24:17;;;;;;;7.83;2.37;;;21.60;94.00;;;;;;4980424;28;20810;-75
2022/06/03 18:27:11;;;;;;;5.50;2.53;;;21.50;94.70;;;;;;4992282;28;20471;-75
2022/06/03 18:30:03;;;;;;;2.40;2.20;;;21.40;92.80;;;;;;4976885;28;20452;-75
2022/06/03 18:32:58;;;;;;;3.30;2.30;;;21.30;93.40;;;;;;4994574;28;20512;-76
2022/06/03 18:35:53;;;;;;;4.80;2.57;;;21.20;93.90;;;;;;4994494;28;20409;-75
2022/06/03 18:38:33;;;;;;;2.90;2.27;;;21.10;94.20;;;;;;4994059;28;20532;-76
2022/06/03 18:41:27;;;;;;;2.20;1.80;;;21.00;95.40;;;;;;4994181;28;21000;-75
2022/06/03 18:44:20;;;;;;;7.43;2.60;;;21.00;94.30;;;;;;4993817;28;20871;-76
2022/06/03 18:47:01;;;;;;;2.20;2.00;;;20.90;94.20;;;;;;4994444;28;21019;-75
2022/06/03 18:49:49;;;;;;;5.47;2.43;;;20.80;95.70;;;;;;4976749;28;20512;-75
2022/06/03 18:52:23;;;;;;;2.53;2.10;;;20.80;96.10;;;;;;4983880;28;20442;-76
2022/06/03 18:55:21;;;;;;;3.67;2.70;;;20.60;96.30;;;;;;4990017;28;20893;-74
2022/06/03 18:58:00;;;;;;;9.00;2.40;;;20.60;96.10;;;;;;4977766;28;20825;-75
2022/06/03 19:00:28;;;;;;;3.00;2.30;;;20.60;96.30;;;;;;4986083;28;20904;-74
2022/06/03 19:03:14;;;;;;;3.50;2.37;;;20.40;96.30;;;;;;4988591;28;20467;-75
2022/06/03 19:06:10;;;;;;;6.30;2.43;;;20.30;96.30;;;;;;4962477;28;20426;-74
2022/06/03 19:08:51;;;;;;;2.73;2.53;;;20.20;96.30;;;;;;4973709;28;20544;-75
2022/06/03 19:11:44;;;;;;;7.33;2.40;;;20.10;96.30;;;;;;4975496;28;20433;-75
2022/06/03 19:14:27;;;;;;;6.17;2.60;;;19.80;96.30;;;;;;4993761;28;20428;-76
2022/06/03 19:17:01;;;;;;;5.27;2.73;;;19.70;96.30;;;;;;4993829;28;20418;-76
2022/06/03 19:19:51;;;;;;;6.63;2.57;;;19.60;96.30;;;;;;4991965;28;20436;-75
2022/06/03 19:22:59;;;;;;;4.90;2.40;;;19.50;96.30;;;;;;4981740;28;20441;-75
2022/06/03 19:25:34;;;;;;;2.83;2.23;;;19.30;96.30;;;;;;4973768;28;20405;-75
2022/06/03 19:28:28;;;;;;;3.60;2.00;;;19.20;96.30;;;;;;4987094;28;20416;-75